KMBO

Bruce Campbell Field Airport

Madison, Mississippi, USA
METAR KMBO 201955Z AUTO 31004KT 10SM OVC012 17/16 A3010 RMK AO2 PWINO
Observed Flight Rules
Oct-20 @ 19:55 UTC (19 minutes ago) Marginal Visual Flight Rules
Wind Visibility Clouds
310° at 4 knots 10 miles
  • Overcast at 1,200' AGL
Temperatures Readings
Current 17°C / 63°F
Dewpoint 16°C / 61°F
Humidity 94%
Altimeter 30.1" Hg
Pressure 1019 hPa
Elevation 99
METAR KMBO 201955Z AUTO 31004KT 10SM OVC012 17/16 A3010 RMK AO2 PWINO
Observed Flight Rules
Oct-20 @ 19:55 UTC
(19 minutes ago)
MVFR
Wind Visibility
310° at 4 knots 10 miles
Clouds
  • Overcast at 1,200' AGL
Temperature Dewpoint
17°C / 63°F 16°C / 61°F
Humidity Altimeter Pressure
94% 30.1" Hg 1019 hPa